createdAt,value
2023-05-05T00:03:36.300Z,8.00
2023-05-05T00:09:39.742Z,6.30
2023-05-05T00:15:47.209Z,5.83
2023-05-05T00:21:49.727Z,9.60
2023-05-05T00:27:55.263Z,7.43
2023-05-05T00:33:57.709Z,6.47
2023-05-05T00:40:00.214Z,9.63
2023-05-05T00:46:26.865Z,8.43
2023-05-05T00:52:30.228Z,7.73
2023-05-05T00:58:38.714Z,7.73
2023-05-05T01:04:43.186Z,8.63
2023-05-05T01:11:11.749Z,7.80
2023-05-05T01:17:23.679Z,8.53
2023-05-05T01:24:01.843Z,8.97
2023-05-05T01:30:23.364Z,11.27
2023-05-05T01:36:33.891Z,12.57
2023-05-05T01:42:40.370Z,10.53
2023-05-05T01:48:44.897Z,11.73
2023-05-05T01:54:50.400Z,11.30
2023-05-05T02:00:57.896Z,10.13
2023-05-05T02:07:06.353Z,9.40
2023-05-05T02:13:12.018Z,11.03
2023-05-05T02:19:16.302Z,12.70
2023-05-05T02:25:18.772Z,12.00
2023-05-05T02:31:26.350Z,13.53
2023-05-05T02:37:32.759Z,12.27
2023-05-05T02:43:40.249Z,13.47
2023-05-05T02:49:48.720Z,14.67
2023-05-05T02:55:58.232Z,15.03
2023-05-05T03:02:42.976Z,13.90
2023-05-05T03:08:55.383Z,14.27
2023-05-05T03:15:04.795Z,10.83
2023-05-05T03:21:12.352Z,9.00
2023-05-05T03:27:14.413Z,13.87
2023-05-05T03:33:17.317Z,11.20
2023-05-05T03:39:19.801Z,11.17
2023-05-05T03:45:24.655Z,11.80
2023-05-05T03:51:27.760Z,9.50
2023-05-05T03:57:30.254Z,9.27
2023-05-05T04:03:34.758Z,9.33
2023-05-05T04:09:41.227Z,9.93
2023-05-05T04:15:46.727Z,10.13
2023-05-05T04:21:50.330Z,9.50
2023-05-05T04:27:52.696Z,10.50
2023-05-05T04:33:55.214Z,9.23
2023-05-05T04:39:57.678Z,8.70
2023-05-05T04:46:02.139Z,9.67
2023-05-05T04:52:07.634Z,13.03
2023-05-05T04:58:10.089Z,9.90
2023-05-05T05:04:14.301Z,8.40
2023-05-05T05:10:17.049Z,10.07
2023-05-05T05:16:19.595Z,8.77
2023-05-05T05:22:25.003Z,9.27
2023-05-05T05:28:34.849Z,9.43
2023-05-05T05:34:51.367Z,9.57
2023-05-05T05:40:57.883Z,9.00
2023-05-05T05:47:01.346Z,10.57
2023-05-05T05:53:06.791Z,9.33
2023-05-05T05:59:11.257Z,9.90
2023-05-05T06:05:23.232Z,8.43
2023-05-05T06:11:41.300Z,9.87
2023-05-05T06:17:58.914Z,9.60
2023-05-05T06:24:01.415Z,8.37
2023-05-05T06:30:04.921Z,10.27
2023-05-05T06:36:38.476Z,8.60
2023-05-05T06:42:41.954Z,8.97
2023-05-05T06:49:05.499Z,9.80
2023-05-05T06:55:08.031Z,10.70
2023-05-05T07:02:07.711Z,10.37
2023-05-05T07:08:12.191Z,9.10
2023-05-05T07:14:14.670Z,9.27
2023-05-05T07:20:17.124Z,10.50
2023-05-05T07:26:19.618Z,8.37
2023-05-05T07:32:22.782Z,9.40
2023-05-05T07:38:26.564Z,9.50
2023-05-05T07:44:30.070Z,9.97
2023-05-05T07:50:32.549Z,8.50
2023-05-05T07:56:45.000Z,9.47
2023-05-05T08:02:48.142Z,7.30
2023-05-05T08:08:50.125Z,7.87
2023-05-05T08:14:56.440Z,9.10
2023-05-05T08:20:58.904Z,8.17
2023-05-05T08:27:02.435Z,7.20
2023-05-05T08:33:11.854Z,7.23
2023-05-05T08:39:14.433Z,7.90
2023-05-05T08:45:16.873Z,7.67
2023-05-05T08:51:21.070Z,7.63
2023-05-05T08:57:32.786Z,6.83
2023-05-05T09:03:39.899Z,6.07
2023-05-05T09:09:43.151Z,5.00
2023-05-05T09:15:46.256Z,5.70
2023-05-05T09:21:50.678Z,5.68
2023-05-05T09:27:52.628Z,5.03
2023-05-05T09:34:01.529Z,5.30
2023-05-05T09:40:08.210Z,6.03
2023-05-05T09:46:10.046Z,5.60
2023-05-05T09:52:16.784Z,5.85
2023-05-05T09:58:25.231Z,5.65
2023-05-05T10:04:39.906Z,4.80
2023-05-05T10:10:50.136Z,4.70
2023-05-05T10:16:53.788Z,5.55
2023-05-05T10:23:03.376Z,4.82
2023-05-05T10:29:12.589Z,4.72
2023-05-05T10:35:23.500Z,4.82
2023-05-05T10:41:27.279Z,4.32
2023-05-05T10:47:30.726Z,3.65
2023-05-05T10:53:44.263Z,4.50
2023-05-05T10:59:47.874Z,5.60
2023-05-05T11:06:05.301Z,4.88
2023-05-05T11:12:11.751Z,3.35
2023-05-05T11:18:36.385Z,3.08
2023-05-05T11:24:40.798Z,3.65
2023-05-05T11:31:39.581Z,4.82
2023-05-05T11:37:43.970Z,3.72
2023-05-05T11:43:53.569Z,3.97
2023-05-05T11:49:57.041Z,3.55
2023-05-05T11:56:13.522Z,3.70
2023-05-05T12:02:31.129Z,4.38
2023-05-05T12:08:40.594Z,3.60
2023-05-05T12:14:54.164Z,3.95
2023-05-05T12:20:59.665Z,4.20
2023-05-05T12:27:29.311Z,3.90
2023-05-05T12:33:40.099Z,3.75
2023-05-05T12:39:44.120Z,6.32
2023-05-05T12:46:10.991Z,4.32
2023-05-05T12:52:21.357Z,6.57
2023-05-05T12:58:23.844Z,5.43
2023-05-05T13:04:29.351Z,4.00
2023-05-05T13:10:31.862Z,3.70
2023-05-05T13:16:34.324Z,4.20
2023-05-05T13:22:52.838Z,3.13
2023-05-05T13:29:07.388Z,3.78
2023-05-05T13:35:23.902Z,4.55
2023-05-05T13:41:26.383Z,4.65
2023-05-05T13:47:32.890Z,4.53
2023-05-05T13:53:45.704Z,4.13
2023-05-05T13:59:54.474Z,3.17
2023-05-05T14:06:03.814Z,3.67
2023-05-05T14:12:08.269Z,3.47
2023-05-05T14:18:17.376Z,4.03
2023-05-05T14:24:20.844Z,4.25
2023-05-05T14:30:25.328Z,3.35
2023-05-05T14:36:37.804Z,3.72
2023-05-05T14:42:40.971Z,4.22
2023-05-05T14:48:52.789Z,3.70
2023-05-05T14:54:59.562Z,3.60
2023-05-05T15:01:03.536Z,3.50
2023-05-05T15:07:07.883Z,4.05
2023-05-05T15:13:12.768Z,6.97
2023-05-05T15:19:17.694Z,4.43
2023-05-05T15:25:20.843Z,3.92
2023-05-05T15:31:30.115Z,4.28
2023-05-05T15:37:37.864Z,4.30
2023-05-05T15:43:46.003Z,3.50
2023-05-05T15:50:03.755Z,5.05
2023-05-05T15:56:13.249Z,4.10
2023-05-05T16:02:15.801Z,4.13
2023-05-05T16:08:41.285Z,3.53
2023-05-05T16:14:43.417Z,3.33
2023-05-05T16:20:48.282Z,4.25
2023-05-05T16:26:51.769Z,4.40
2023-05-05T16:32:55.254Z,3.03
2023-05-05T16:39:00.043Z,4.03
2023-05-05T16:45:04.011Z,3.47
2023-05-05T16:51:06.663Z,4.45
2023-05-05T16:57:09.182Z,4.95
2023-05-05T17:03:11.619Z,5.32
2023-05-05T17:09:14.083Z,4.88
2023-05-05T17:15:21.012Z,5.20
2023-05-05T17:21:24.042Z,5.20
2023-05-05T17:27:27.892Z,6.93
2023-05-05T17:33:33.034Z,14.52
2023-05-05T17:39:35.548Z,14.25
2023-05-05T17:45:38.013Z,21.08
2023-05-05T17:51:43.536Z,58.83
2023-05-05T17:57:46.009Z,51.70
2023-05-05T18:03:48.542Z,31.30
2023-05-05T18:09:50.946Z,25.83
2023-05-05T18:15:53.402Z,21.80
2023-05-05T18:21:55.931Z,11.27
2023-05-05T18:27:58.406Z,6.57
2023-05-05T18:34:03.882Z,6.23
2023-05-05T18:40:07.382Z,4.70
2023-05-05T18:46:09.834Z,3.87
2023-05-05T18:52:12.298Z,4.13
2023-05-05T18:58:14.786Z,5.20
2023-05-05T19:04:30.102Z,3.57
2023-05-05T19:10:33.753Z,5.17
2023-05-05T19:16:36.226Z,4.67
2023-05-05T19:22:38.677Z,6.97
2023-05-05T19:28:44.145Z,7.80
2023-05-05T19:34:46.634Z,6.37
2023-05-05T19:40:51.430Z,10.40
2023-05-05T19:46:55.615Z,7.57
2023-05-05T19:52:58.084Z,7.83
2023-05-05T19:59:05.595Z,9.33
2023-05-05T20:05:08.065Z,10.20
2023-05-05T20:11:10.552Z,7.53
2023-05-05T20:17:15.012Z,7.73
2023-05-05T20:23:17.490Z,7.13
2023-05-05T20:29:20.952Z,5.27
2023-05-05T20:35:23.393Z,6.10
2023-05-05T20:41:25.933Z,6.13
2023-05-05T20:47:28.397Z,6.57
2023-05-05T20:53:31.862Z,4.77
2023-05-05T20:59:34.364Z,4.80
2023-05-05T21:05:37.844Z,7.07
2023-05-05T21:11:40.273Z,7.83
2023-05-05T21:17:42.804Z,5.93
2023-05-05T21:23:48.262Z,4.60
2023-05-05T21:29:54.730Z,5.00
2023-05-05T21:35:57.211Z,4.10
2023-05-05T21:42:00.726Z,5.03
2023-05-05T21:48:03.220Z,4.00
2023-05-05T21:54:05.667Z,4.30
2023-05-05T22:00:12.967Z,6.57
2023-05-05T22:06:19.617Z,5.10
2023-05-05T22:12:22.110Z,4.90
2023-05-05T22:18:24.592Z,4.70
2023-05-05T22:24:27.036Z,4.17
2023-05-05T22:30:29.538Z,4.47
2023-05-05T22:36:31.764Z,4.13
2023-05-05T22:42:38.620Z,4.20
2023-05-05T22:48:40.893Z,4.10
2023-05-05T22:54:43.381Z,3.23
2023-05-05T23:00:46.926Z,5.07
2023-05-05T23:06:49.350Z,6.17
2023-05-05T23:12:51.848Z,3.50
2023-05-05T23:18:54.297Z,3.70
2023-05-05T23:24:56.796Z,5.57
2023-05-05T23:30:59.317Z,4.40
2023-05-05T23:37:02.957Z,6.30
2023-05-05T23:43:07.224Z,5.27
2023-05-05T23:49:09.713Z,5.50
2023-05-05T23:55:13.218Z,4.07
